Time;durP1;ratioP1;P1;durP2;ratioP2;P2;SDS_P1;SDS_P2;PMS_P1;PMS_P2;Temp;Humidity;BMP_temperature;BMP_pressure;BME280_temperature;BME280_humidity;BME280_pressure;Samples;Min_cycle;Max_cycle;Signal;HPM_P1;HPM_P2
2022/01/23 00:01:08;;;;;;;;;49.00;38.50;;;;;7.65;74.52;103385.03;5102230;27;45454;-70
2022/01/23 00:03:33;;;;;;;;;47.25;36.00;;;;;7.71;74.69;103393.81;5098669;27;46632;-70
2022/01/23 00:05:59;;;;;;;;;56.75;39.50;;;;;7.71;75.15;103385.09;5093024;27;45493;-70
2022/01/23 00:08:25;;;;;;;;;57.00;38.75;;;;;7.72;74.75;103379.00;5092913;27;45692;-70
2022/01/23 00:10:52;;;;;;;;;53.50;35.00;;;;;7.75;74.82;103386.91;5099645;27;45646;-70
2022/01/23 00:18:31;;;;;;;;;46.75;33.25;;;;;7.73;74.29;103397.34;5093274;27;45373;-70
2022/01/23 00:20:57;;;;;;;;;49.75;34.75;;;;;7.75;74.56;103397.38;5092893;27;45312;-70
2022/01/23 00:23:33;;;;;;;;;44.00;35.00;;;;;7.73;74.44;103397.34;5094940;27;46382;-70
2022/01/23 00:31:29;;;;;;;;;54.75;37.50;;;;;7.69;74.37;103387.69;5104736;27;45468;-70
2022/01/23 00:33:55;;;;;;;;;54.00;39.75;;;;;7.68;75.02;103380.72;5094736;27;46335;-70
2022/01/23 00:36:25;;;;;;;;;48.25;38.75;;;;;7.67;74.49;103381.56;5091115;27;45467;-70
2022/01/23 00:38:50;;;;;;;;;48.50;37.75;;;;;7.65;74.49;103385.03;5102969;27;45907;-70
2022/01/23 00:41:16;;;;;;;;;43.25;32.25;;;;;7.61;74.49;103386.72;5092137;27;45349;-70
2022/01/23 00:43:43;;;;;;;;;38.75;32.75;;;;;7.47;74.66;103356.91;5094883;27;45422;-70
2022/01/23 00:48:42;;;;;;;;;42.25;31.75;;;;;7.54;74.51;103374.44;5098173;27;45427;-70
2022/01/23 00:51:07;;;;;;;;;41.00;34.50;;;;;7.47;74.55;103362.16;5105602;27;45628;-70
2022/01/23 00:53:33;;;;;;;;;49.67;34.00;;;;;7.45;74.86;103369.09;5106922;27;47689;-70
2022/01/23 00:55:58;;;;;;;;;51.75;38.25;;;;;7.42;75.05;103374.31;5098459;27;45335;-70
2022/01/23 00:58:24;;;;;;;;;46.00;35.50;;;;;7.35;74.26;103360.25;5098305;27;45305;-70
2022/01/23 01:00:49;;;;;;;;;58.75;38.00;;;;;7.36;74.76;103363.72;5096378;27;45369;-70
2022/01/23 01:03:14;;;;;;;;;43.00;32.75;;;;;7.33;74.63;103361.97;5095070;27;45437;-70
2022/01/23 01:05:40;;;;;;;;;42.00;29.75;;;;;7.31;74.97;103351.50;5104641;27;45376;-70
2022/01/23 01:08:06;;;;;;;;;51.00;33.50;;;;;7.35;74.92;103352.41;5096065;27;45327;-70
2022/01/23 01:13:29;;;;;;;;;44.00;34.75;;;;;7.38;75.23;103357.69;5054633;28;46374;-70
2022/01/23 01:32:08;;;;;;;;;38.75;33.00;;;;;7.26;75.37;103361.03;5056752;28;45530;-70
2022/01/23 01:34:45;;;;;;;;;42.25;30.00;;;;;7.25;75.05;103359.25;5054515;28;46437;-70
2022/01/23 01:37:11;;;;;;;;;43.00;30.75;;;;;7.26;75.13;103368.00;5053856;28;45460;-70
2022/01/23 01:39:37;;;;;;;;;48.00;34.00;;;;;7.21;75.01;103354.84;5053431;28;45755;-70
2022/01/23 01:42:03;;;;;;;;;38.00;30.25;;;;;7.21;75.41;103349.63;5053932;28;45634;-70
2022/01/23 01:44:28;;;;;;;;;39.75;29.25;;;;;7.25;75.26;103355.75;5053792;28;46453;-70
2022/01/23 01:46:54;;;;;;;;;37.00;26.00;;;;;7.24;74.98;103356.63;5064548;28;45432;-70
2022/01/23 01:49:26;;;;;;;;;37.00;29.00;;;;;7.24;75.24;103348.78;5055945;27;45529;-70
2022/01/23 01:51:53;;;;;;;;;39.75;31.75;;;;;7.23;75.29;103347.91;5098520;27;45951;-70
2022/01/23 01:54:21;;;;;;;;;26.25;19.00;;;;;7.19;75.32;103346.09;5095757;27;46686;-70
2022/01/23 01:56:50;;;;;;;;;42.00;29.00;;;;;7.22;74.90;103361.84;5094471;27;45855;-70
2022/01/23 01:59:33;;;;;;;;;36.50;25.25;;;;;7.20;75.06;103345.22;5073901;27;45827;-70
2022/01/23 02:09:52;;;;;;;;;29.75;28.25;;;;;7.15;75.45;103348.66;5097887;27;45627;-70
2022/01/23 02:50:37;;;;;;;;;31.50;23.00;;;;;7.05;75.35;103343.31;5098122;27;45446;-70
2022/01/23 02:55:49;;;;;;;;;41.00;29.50;;;;;6.89;75.87;103312.59;5092326;27;45455;-70
2022/01/23 02:58:20;;;;;;;;;30.25;25.00;;;;;6.89;75.74;103315.22;5094100;27;46645;-70
2022/01/23 03:00:49;;;;;;;;;31.00;26.25;;;;;6.85;75.94;103308.19;5094454;27;45990;-70
2022/01/23 03:03:22;;;;;;;;;40.25;31.25;;;;;6.83;76.13;103307.25;5095875;27;45529;-70
2022/01/23 03:06:20;;;;;;;;;39.25;31.25;;;;;6.84;75.84;103300.28;5094312;27;45542;-70
2022/01/23 03:09:01;;;;;;;;;33.00;22.25;;;;;6.84;75.94;103306.44;5095066;27;45684;-70
2022/01/23 03:14:14;;;;;;;;;33.00;26.25;;;;;6.78;75.89;103301.97;5099259;27;45387;-70
2022/01/23 03:29:55;;;;;;;;;38.75;26.50;;;;;6.64;76.15;103292.19;5093590;27;45899;-70
2022/01/23 03:32:36;;;;;;;;;33.75;26.25;;;;;6.63;76.30;103299.16;5078418;27;45392;-70
2022/01/23 03:35:01;;;;;;;;;27.75;23.50;;;;;6.63;75.93;103291.31;5094185;27;45495;-70
2022/01/23 03:37:27;;;;;;;;;35.00;24.50;;;;;6.63;76.07;103286.09;5105225;27;45467;-70
2022/01/23 03:39:52;;;;;;;;;36.33;23.33;;;;;6.66;76.48;103287.88;5095997;27;58071;-70
2022/01/23 03:42:18;;;;;;;;;28.50;20.75;;;;;6.67;76.11;103292.22;5098169;27;45408;-70
2022/01/23 03:44:57;;;;;;;;;38.50;30.00;;;;;6.67;76.03;103284.38;5106737;27;45526;-70
2022/01/23 03:47:35;;;;;;;;;37.50;28.00;;;;;6.63;75.92;103288.72;5078398;27;45269;-70
2022/01/23 03:50:01;;;;;;;;;31.50;21.50;;;;;6.62;76.20;103288.66;5094048;27;45661;-70
2022/01/23 03:52:26;;;;;;;;;36.25;21.00;;;;;6.48;76.03;103263.25;5097679;27;45549;-70
2022/01/23 03:54:52;;;;;;;;;35.00;25.75;;;;;6.65;76.05;103289.59;5093770;27;45424;-70
2022/01/23 03:57:17;;;;;;;;;32.00;26.50;;;;;6.58;75.99;103268.56;5094095;27;45423;-70
2022/01/23 03:59:43;;;;;;;;;41.33;24.33;;;;;6.60;76.28;103272.09;5104306;27;48962;-70
2022/01/23 04:02:08;;;;;;;;;44.00;24.67;;;;;6.70;76.39;103281.84;5093265;27;45293;-70
2022/01/23 04:04:38;;;;;;;;;36.25;25.50;;;;;6.68;76.18;103278.31;5095994;27;45300;-70
2022/01/23 04:07:13;;;;;;;;;32.00;24.25;;;;;6.71;75.85;103276.63;5092111;27;45649;-70
2022/01/23 04:09:40;;;;;;;;;36.00;27.00;;;;;6.68;76.32;103268.75;5093134;27;46402;-70
2022/01/23 04:12:07;;;;;;;;;41.25;30.00;;;;;6.65;75.96;103267.81;5099265;27;45439;-70
2022/01/23 04:14:35;;;;;;;;;36.25;30.00;;;;;6.63;76.17;103279.97;5107415;27;45460;-70
2022/01/23 04:20:22;;;;;;;;;35.75;27.50;;;;;6.46;76.54;103253.59;5092146;27;45457;-70
2022/01/23 04:33:55;;;;;;;;;37.75;29.00;;;;;6.61;76.49;103285.19;5096532;27;45946;-70
2022/01/23 05:00:47;;;;;;;;;32.50;26.00;;;;;6.61;76.90;103281.69;5096194;27;45536;-70
2022/01/23 05:05:38;;;;;;;;;28.75;21.75;;;;;6.57;77.22;103279.88;5096688;27;45623;-70
2022/01/23 05:08:06;;;;;;;;;19.50;11.50;;;;;6.56;76.94;103291.19;5097409;27;45643;-70
2022/01/23 05:10:33;;;;;;;;;37.75;26.50;;;;;6.52;77.27;103300.72;5096275;27;45618;-70
2022/01/23 05:12:59;;;;;;;;;31.00;20.50;;;;;6.43;77.07;103280.59;5094819;27;47123;-70
2022/01/23 05:15:25;;;;;;;;;29.50;18.50;;;;;6.47;77.21;103289.31;5095636;27;46005;-70
2022/01/23 05:17:50;;;;;;;;;33.00;21.25;;;;;6.44;77.09;103286.69;5096373;27;45418;-70
2022/01/23 05:20:18;;;;;;;;;21.25;18.00;;;;;6.43;76.74;103290.16;5106562;27;45453;-70
2022/01/23 05:22:49;;;;;;;;;20.75;17.00;;;;;6.37;76.73;103290.94;5100323;27;47333;-70
2022/01/23 05:27:43;;;;;;;;;22.75;17.50;;;;;6.32;76.43;103295.22;5094003;27;45614;-70
2022/01/23 05:30:09;;;;;;;;;24.25;20.75;;;;;6.34;76.85;103300.44;5087393;27;45285;-70
2022/01/23 05:32:40;;;;;;;;;24.25;19.00;;;;;6.24;76.85;103278.53;5095071;27;45802;-70
2022/01/23 05:35:08;;;;;;;;;23.25;20.50;;;;;6.35;76.98;103296.97;5095787;27;45343;-70
2022/01/23 05:37:35;;;;;;;;;24.25;19.50;;;;;6.36;76.77;103289.16;5097712;27;45807;-70
2022/01/23 05:40:01;;;;;;;;;27.25;23.50;;;;;6.38;76.82;103290.06;5094812;27;45480;-70
2022/01/23 05:42:26;;;;;;;;;25.75;19.50;;;;;6.37;76.87;103290.94;5101139;27;46414;-70
2022/01/23 05:44:52;;;;;;;;;22.75;17.50;;;;;6.31;76.75;103288.19;5095937;27;45450;-70
2022/01/23 05:47:18;;;;;;;;;25.50;14.50;;;;;6.34;76.57;103288.28;5095997;27;45344;-70
2022/01/23 05:49:43;;;;;;;;;16.00;13.50;;;;;6.29;76.26;103284.69;5093269;27;45399;-70
2022/01/23 05:52:08;;;;;;;;;11.00;10.00;;;;;6.31;76.25;103292.56;5094823;27;45527;-70
2022/01/23 05:54:35;;;;;;;;;13.00;8.50;;;;;6.26;75.93;103297.69;5096659;27;45452;-70
2022/01/23 05:57:00;;;;;;;;;21.00;15.00;;;;;6.24;76.35;103297.69;5095553;27;45440;-70
2022/01/23 05:59:26;;;;;;;;;13.75;11.00;;;;;6.25;76.25;103301.16;5108808;27;45517;-70
2022/01/23 06:01:51;;;;;;;;;16.25;12.00;;;;;6.24;76.57;103296.81;5107108;27;45671;-70
2022/01/23 06:04:18;;;;;;;;;18.00;10.50;;;;;6.26;76.82;103300.31;5086192;27;45508;-70
2022/01/23 06:06:44;;;;;;;;;18.25;13.25;;;;;6.25;76.21;103311.63;5099753;27;45470;-70
2022/01/23 06:09:10;;;;;;;;;16.75;11.75;;;;;6.25;76.49;103301.16;5108604;27;45513;-70
2022/01/23 06:11:35;;;;;;;;;14.75;13.25;;;;;6.26;76.81;103297.69;5081367;27;47491;-70
2022/01/23 06:14:01;;;;;;;;;18.00;14.33;;;;;6.28;76.59;103296.00;5108641;27;62251;-70
2022/01/23 06:16:26;;;;;;;;;23.00;16.00;;;;;6.28;77.02;103296.00;5103473;27;45397;-70
2022/01/23 06:18:51;;;;;;;;;13.25;9.25;;;;;6.31;76.61;103309.09;5104612;27;45595;-70
2022/01/23 06:21:19;;;;;;;;;14.25;11.00;;;;;6.28;76.46;103303.84;5105343;27;46746;-70
2022/01/23 06:23:48;;;;;;;;;12.50;12.50;;;;;6.22;76.37;103298.53;5099903;27;45558;-70
2022/01/23 06:26:15;;;;;;;;;21.25;14.25;;;;;6.19;76.81;103286.28;5106497;27;45510;-70
2022/01/23 06:28:54;;;;;;;;;13.00;12.50;;;;;6.22;76.59;103295.91;5114675;27;45526;-70
2022/01/23 06:31:20;;;;;;;;;24.00;12.50;;;;;6.18;76.46;103287.16;5098401;27;45599;-70
2022/01/23 06:33:45;;;;;;;;;15.75;13.00;;;;;6.23;76.86;103295.06;5107163;27;45788;-70
2022/01/23 06:36:11;;;;;;;;;15.50;13.00;;;;;6.18;76.47;103288.88;5107181;27;45306;-70
2022/01/23 06:38:36;;;;;;;;;17.50;12.75;;;;;6.19;77.05;103301.06;5105808;27;45438;-70
2022/01/23 06:41:02;;;;;;;;;25.00;13.00;;;;;6.17;77.34;103294.97;5098567;27;45451;-70
2022/01/23 06:43:27;;;;;;;;;17.50;12.00;;;;;6.20;77.25;103298.47;5094454;27;45543;-70
2022/01/23 06:45:52;;;;;;;;;17.33;12.67;;;;;6.22;77.33;103286.34;5093708;27;50743;-70
2022/01/23 06:48:18;;;;;;;;;22.75;13.50;;;;;6.20;77.22;103284.56;5096121;27;45342;-70
2022/01/23 06:50:43;;;;;;;;;19.50;12.25;;;;;6.23;77.07;103293.31;5101461;27;45394;-70
2022/01/23 06:53:08;;;;;;;;;11.25;9.50;;;;;6.24;77.05;103291.59;5107955;27;45552;-70
2022/01/23 06:55:33;;;;;;;;;17.00;13.67;;;;;6.24;77.27;103300.28;5100294;27;45919;-69
2022/01/23 06:57:59;;;;;;;;;17.67;13.67;;;;;6.20;77.12;103301.09;5092616;27;47265;-70
2022/01/23 07:00:24;;;;;;;;;13.33;9.00;;;;;6.21;77.37;103299.34;5094470;27;46121;-69
2022/01/23 07:02:49;;;;;;;;;9.00;9.00;;;;;6.23;76.67;103308.13;5104523;27;45520;-69
2022/01/23 07:05:15;;;;;;;;;14.00;11.75;;;;;6.20;76.68;103308.94;5082264;27;45434;-70
2022/01/23 07:07:40;;;;;;;;;15.50;12.50;;;;;6.18;77.10;103305.44;5112224;27;45261;-70
2022/01/23 07:10:06;;;;;;;;;15.50;10.75;;;;;6.23;76.89;103311.59;5094871;27;46162;-70
2022/01/23 07:12:31;;;;;;;;;20.75;14.75;;;;;6.26;77.08;103318.59;5098365;27;46613;-70
2022/01/23 07:14:57;;;;;;;;;17.33;14.00;;;;;6.24;76.99;103318.56;5097156;27;46959;-70
2022/01/23 07:17:22;;;;;;;;;24.50;14.75;;;;;6.26;76.33;103315.97;5093894;27;45308;-70
2022/01/23 07:19:47;;;;;;;;;16.75;10.50;;;;;6.24;76.84;103299.41;5095368;27;46183;-70
2022/01/23 07:22:13;;;;;;;;;15.00;11.25;;;;;6.27;76.58;103312.53;5098455;27;45503;-70
2022/01/23 07:24:38;;;;;;;;;10.67;8.33;;;;;6.28;76.70;103319.50;5094165;27;45458;-70
2022/01/23 07:27:13;;;;;;;;;20.00;14.00;;;;;6.26;76.72;103321.19;5084379;27;45394;-70
2022/01/23 07:29:41;;;;;;;;;21.00;13.75;;;;;6.23;76.67;103310.72;5100306;27;46664;-70
2022/01/23 07:32:08;;;;;;;;;13.25;12.25;;;;;6.25;76.69;103309.00;5105546;27;45611;-69
2022/01/23 07:34:34;;;;;;;;;16.25;14.00;;;;;6.23;76.39;103309.00;5100908;27;45580;-70
2022/01/23 07:36:59;;;;;;;;;13.25;11.50;;;;;6.19;76.14;103319.34;5097137;27;45608;-69
2022/01/23 07:39:25;;;;;;;;;15.75;10.00;;;;;6.15;76.07;103317.53;5093728;27;45488;-72
2022/01/23 07:41:50;;;;;;;;;15.50;12.75;;;;;6.13;75.96;103319.25;5093480;27;45325;-70
2022/01/23 07:44:17;;;;;;;;;17.50;12.50;;;;;6.06;76.49;103313.06;5095948;27;45419;-69
2022/01/23 07:46:42;;;;;;;;;15.75;8.50;;;;;6.08;75.69;103318.31;5087720;27;45404;-69
2022/01/23 07:49:08;;;;;;;;;21.50;17.00;;;;;6.04;76.05;103311.25;5092342;27;46392;-69
2022/01/23 07:51:33;;;;;;;;;19.75;13.75;;;;;6.06;76.36;103313.06;5096640;27;45587;-69
2022/01/23 07:53:59;;;;;;;;;19.00;12.25;;;;;6.07;75.86;103316.56;5103430;27;45404;-69
2022/01/23 07:56:24;;;;;;;;;13.75;13.00;;;;;6.01;76.39;103310.38;5093657;27;45465;-69
2022/01/23 07:58:49;;;;;;;;;13.25;10.25;;;;;6.03;76.29;103328.66;5094911;27;46550;-69
2022/01/23 08:01:15;;;;;;;;;13.67;12.00;;;;;6.03;76.08;103331.28;5098105;27;49233;-69
2022/01/23 08:03:40;;;;;;;;;8.00;8.00;;;;;5.99;76.02;103325.09;5090318;27;45537;-69
2022/01/23 08:06:06;;;;;;;;;19.75;19.25;;;;;6.03;76.43;103333.88;5102200;27;45535;-69
2022/01/23 08:08:32;;;;;;;;;22.00;12.25;;;;;6.04;76.45;103340.84;5093370;27;45985;-69
2022/01/23 08:10:57;;;;;;;;;18.00;13.25;;;;;5.96;76.04;103322.47;5107182;27;45478;-69
2022/01/23 08:13:22;;;;;;;;;18.33;12.67;;;;;6.05;76.09;103336.50;5094792;27;49055;-69
2022/01/23 08:15:48;;;;;;;;;15.25;11.75;;;;;6.06;75.79;103348.75;5093340;27;45467;-69
2022/01/23 08:18:15;;;;;;;;;13.50;9.75;;;;;6.03;76.23;103346.94;5090311;27;46518;-69
2022/01/23 08:20:40;;;;;;;;;25.25;17.25;;;;;6.03;76.18;103346.94;5096210;27;45450;-69
2022/01/23 08:23:06;;;;;;;;;18.00;12.00;;;;;6.06;76.27;103347.00;5092830;27;45321;-69
2022/01/23 08:25:32;;;;;;;;;13.75;12.50;;;;;6.12;76.13;103352.31;5093090;27;45627;-69
2022/01/23 08:27:58;;;;;;;;;22.25;15.00;;;;;6.14;75.95;103354.94;5091352;27;45598;-69
2022/01/23 08:30:24;;;;;;;;;13.50;10.25;;;;;6.12;76.43;103346.22;5095340;27;45699;-70
2022/01/23 08:32:50;;;;;;;;;19.25;11.00;;;;;6.12;76.42;103347.09;5097109;27;46095;-69
2022/01/23 08:35:15;;;;;;;;;14.75;10.75;;;;;6.12;76.32;103349.72;5093208;27;45593;-69
2022/01/23 08:37:41;;;;;;;;;19.75;14.75;;;;;6.11;76.32;103354.88;5094513;27;46557;-69
2022/01/23 08:40:17;;;;;;;;;15.50;11.25;;;;;6.11;76.66;103353.19;5092749;27;45463;-69
2022/01/23 08:42:43;;;;;;;;;16.00;10.25;;;;;6.06;76.28;103344.38;5092653;27;45594;-69
2022/01/23 08:45:09;;;;;;;;;21.00;11.00;;;;;6.03;76.43;103344.31;5094568;27;45809;-69
2022/01/23 08:47:34;;;;;;;;;16.75;12.75;;;;;6.07;76.83;103355.72;5092345;27;48200;-69
2022/01/23 08:49:59;;;;;;;;;14.00;12.25;;;;;6.05;76.55;103360.00;5093264;27;45474;-69
2022/01/23 08:52:25;;;;;;;;;16.00;15.25;;;;;6.07;76.87;103360.94;5096661;27;45884;-69
2022/01/23 08:54:56;;;;;;;;;17.25;13.75;;;;;6.06;76.65;103360.06;5093295;27;45479;-69
2022/01/23 08:57:22;;;;;;;;;28.00;15.00;;;;;6.06;76.81;103349.59;5092883;27;47009;-69
2022/01/23 08:59:48;;;;;;;;;13.25;9.75;;;;;6.08;76.69;103357.47;5081348;27;45464;-69
2022/01/23 09:02:14;;;;;;;;;21.25;13.00;;;;;6.10;76.99;103350.53;5084914;27;45407;-68
2022/01/23 09:04:39;;;;;;;;;19.75;13.50;;;;;6.10;76.64;103355.75;5094406;27;45483;-68
2022/01/23 09:07:04;;;;;;;;;21.50;14.50;;;;;6.05;76.36;103358.28;5092280;27;54925;-69
2022/01/23 09:09:32;;;;;;;;;16.75;11.00;;;;;6.05;76.31;103371.31;5100355;27;45374;-70
2022/01/23 09:12:06;;;;;;;;;16.00;11.25;;;;;6.08;76.23;103362.69;5096277;27;45518;-68
2022/01/23 09:14:32;;;;;;;;;9.75;8.75;;;;;6.10;76.59;103358.34;5096289;27;45366;-68
2022/01/23 09:16:58;;;;;;;;;12.75;9.00;;;;;6.10;76.03;103358.34;5097044;27;47626;-68
2022/01/23 09:19:25;;;;;;;;;15.50;10.25;;;;;6.13;76.20;103358.41;5097420;27;45913;-68
2022/01/23 09:21:52;;;;;;;;;12.75;10.50;;;;;6.12;75.98;103362.78;5097434;27;45642;-69
2022/01/23 09:24:21;;;;;;;;;9.00;9.00;;;;;6.13;76.00;103367.13;5097963;27;45490;-68
2022/01/23 09:26:53;;;;;;;;;12.50;9.00;;;;;6.10;75.70;103369.66;5095844;27;47505;-68
2022/01/23 09:29:30;;;;;;;;;9.25;6.25;;;;;6.10;76.16;103360.97;5078694;27;47263;-68
2022/01/23 09:31:56;;;;;;;;;9.75;9.75;;;;;6.01;76.31;103354.75;5096312;27;45335;-68
2022/01/23 09:34:26;;;;;;;;;12.25;9.50;;;;;6.12;75.77;103374.94;5096118;27;45476;-68
2022/01/23 09:36:54;;;;;;;;;14.00;9.00;;;;;6.09;76.09;103380.09;5099392;27;46762;-67
2022/01/23 09:39:21;;;;;;;;;13.00;8.75;;;;;6.10;76.15;103381.84;5095445;27;45581;-69
2022/01/23 09:41:50;;;;;;;;;12.75;9.50;;;;;6.08;76.06;103367.91;5094175;27;45384;-68
2022/01/23 09:44:18;;;;;;;;;15.25;11.75;;;;;6.15;76.11;103372.38;5079957;27;45428;-68
2022/01/23 09:46:45;;;;;;;;;18.50;13.00;;;;;6.13;76.36;103367.13;5093176;27;45665;-68
2022/01/23 09:49:14;;;;;;;;;17.50;13.00;;;;;6.18;76.27;103367.22;5097368;27;46015;-68
2022/01/23 09:51:42;;;;;;;;;15.25;13.25;;;;;6.18;76.08;103362.88;5091680;27;45744;-67
2022/01/23 09:54:10;;;;;;;;;12.25;9.50;;;;;6.18;76.00;103367.22;5090221;27;45577;-67
2022/01/23 09:56:35;;;;;;;;;13.25;9.50;;;;;6.17;75.89;103355.91;5093375;27;46826;-67
2022/01/23 09:59:01;;;;;;;;;12.00;9.75;;;;;6.19;75.96;103366.34;5086713;27;45490;-67
2022/01/23 10:01:27;;;;;;;;;14.75;7.75;;;;;6.16;79.28;103364.59;5093382;27;45399;-67
2022/01/23 10:03:52;;;;;;;;;8.75;6.00;;;;;6.14;76.64;103365.41;5084424;27;45819;-67
2022/01/23 10:06:18;;;;;;;;;16.00;9.50;;;;;6.13;76.78;103377.56;5083233;27;46336;-67
2022/01/23 10:08:44;;;;;;;;;12.25;9.00;;;;;6.12;76.48;103373.22;5090658;27;45431;-67
2022/01/23 10:11:12;;;;;;;;;13.00;10.50;;;;;6.09;76.27;103361.81;5101808;27;45462;-67
2022/01/23 10:13:40;;;;;;;;;15.75;12.25;;;;;6.07;76.65;103372.25;5095000;27;45460;-67
2022/01/23 10:16:05;;;;;;;;;15.00;9.25;;;;;6.09;76.38;103373.16;5084028;27;46661;-67
2022/01/23 10:18:31;;;;;;;;;8.25;7.25;;;;;6.10;76.26;103381.84;5095778;27;45814;-67
2022/01/23 10:20:57;;;;;;;;;14.25;9.50;;;;;6.08;76.53;103386.19;5094618;27;45470;-67
2022/01/23 10:23:24;;;;;;;;;10.25;10.25;;;;;6.08;76.50;103379.22;5093138;27;45509;-67
2022/01/23 10:25:51;;;;;;;;;9.50;6.25;;;;;6.07;76.33;103366.16;5092556;27;46287;-67
2022/01/23 10:28:20;;;;;;;;;12.50;6.00;;;;;6.06;76.07;103367.00;5090436;27;45444;-67
2022/01/23 10:30:59;;;;;;;;;17.25;9.00;;;;;6.07;75.81;103358.31;5097426;27;45715;-67
2022/01/23 10:33:32;;;;;;;;;13.75;10.50;;;;;6.06;75.92;103375.72;5094859;27;45695;-67
2022/01/23 10:36:07;;;;;;;;;10.00;6.50;;;;;6.08;76.20;103370.50;5093938;27;45590;-67
2022/01/23 10:38:50;;;;;;;;;38.00;32.50;;;;;6.08;76.09;103366.16;5094315;27;45440;-67
2022/01/23 10:47:33;;;;;;;;;15.50;9.25;;;;;6.20;76.41;103365.50;5103833;27;45593;-68
2022/01/23 10:49:59;;;;;;;;;20.50;13.00;;;;;6.24;76.42;103370.81;5094132;27;46027;-68
2022/01/23 10:52:33;;;;;;;;;12.25;10.00;;;;;6.27;76.17;103363.03;5095843;27;45917;-68
2022/01/23 10:55:11;;;;;;;;;11.00;7.25;;;;;6.30;76.19;103363.94;5093995;27;45525;-68
2022/01/23 10:57:37;;;;;;;;;14.25;9.00;;;;;6.32;75.90;103367.44;5095905;27;45819;-68
2022/01/23 11:00:06;;;;;;;;;20.75;12.00;;;;;6.29;76.11;103355.22;5097671;27;45373;-67
2022/01/23 11:02:31;;;;;;;;;11.50;9.00;;;;;6.30;76.28;103356.97;5084820;27;45510;-68
2022/01/23 11:05:00;;;;;;;;;16.75;13.50;;;;;6.31;76.31;103350.00;5097883;27;45377;-68
2022/01/23 11:07:28;;;;;;;;;20.00;15.50;;;;;6.33;76.07;103357.03;5079757;27;47205;-68
2022/01/23 11:09:59;;;;;;;;;20.00;16.25;;;;;6.33;75.77;103359.66;5083743;27;45403;-68
2022/01/23 11:18:35;;;;;;;;;13.00;12.50;;;;;6.33;75.42;103346.59;5011536;28;45721;-68
2022/01/23 11:21:14;;;;;;;;;16.00;12.50;;;;;6.33;75.32;103345.72;5011553;28;45507;-68
2022/01/23 11:23:39;;;;;;;;;13.75;11.25;;;;;6.33;75.34;103341.38;5010154;28;45653;-68
2022/01/23 11:26:04;;;;;;;;;15.00;9.75;;;;;6.36;75.04;103335.28;5010679;28;45550;-68
2022/01/23 11:28:44;;;;;;;;;9.00;9.00;;;;;6.39;74.92;103324.91;5012362;28;45425;-68
2022/01/23 11:31:13;;;;;;;;;13.00;10.25;;;;;6.43;74.89;103319.75;5010652;28;45520;-68
2022/01/23 11:33:40;;;;;;;;;18.25;9.25;;;;;6.47;74.46;103321.56;5012139;28;45482;-68
2022/01/23 11:36:06;;;;;;;;;14.00;8.75;;;;;6.48;74.51;103320.72;5011732;28;45622;-68
2022/01/23 11:38:32;;;;;;;;;14.75;9.25;;;;;6.51;74.33;103323.34;5011588;28;45544;-68
2022/01/23 11:55:35;;;;;;;;;12.25;8.25;;;;;6.48;74.38;103299.81;4993027;28;45467;-69
2022/01/23 11:58:02;;;;;;;;;13.00;10.25;;;;;6.44;74.16;103295.38;4993638;28;45648;-67
2022/01/23 12:00:38;;;;;;;;;10.50;9.75;;;;;6.44;74.26;103290.16;4991425;28;46333;-67
2022/01/23 12:03:18;;;;;;;;;16.00;9.00;;;;;6.44;74.22;103290.16;4997446;28;46104;-67
2022/01/23 12:05:49;;;;;;;;;11.50;10.00;;;;;6.44;74.23;103284.94;4992598;28;45311;-68
2022/01/23 12:08:30;;;;;;;;;22.25;13.00;;;;;6.49;74.48;103287.63;4986785;28;45394;-70
2022/01/23 12:16:21;;;;;;;;;9.75;9.00;;;;;6.50;74.50;103286.75;4999258;28;46856;-71
2022/01/23 12:17:01;;;;;;;;;16.25;13.00;;;;;6.39;74.00;103254.38;4991499;28;45445;-71
2022/01/23 12:19:29;;;;;;;;;15.75;10.50;;;;;6.45;74.04;103275.38;4998381;28;45399;-68
2022/01/23 12:21:56;;;;;;;;;11.75;7.50;;;;;6.47;74.74;103263.19;4998490;28;46427;-68
2022/01/23 12:24:24;;;;;;;;;17.00;16.50;;;;;6.49;74.81;103257.16;4997834;28;45564;-68
2022/01/23 12:26:52;;;;;;;;;22.00;13.50;;;;;6.53;74.46;103258.09;4995475;28;45561;-69
2022/01/23 12:29:27;;;;;;;;;15.00;12.25;;;;;6.54;74.61;103252.88;5021858;27;45509;-68
2022/01/23 12:32:16;;;;;;;;;16.75;13.25;;;;;6.58;74.30;103250.28;5103688;27;47641;-68
2022/01/23 12:34:56;;;;;;;;;15.25;13.50;;;;;6.57;74.56;103243.31;5091865;27;45431;-68
2022/01/23 12:37:22;;;;;;;;;19.50;13.00;;;;;6.58;74.63;103240.75;5095626;27;45412;-68
2022/01/23 12:40:25;;;;;;;;;16.50;13.50;;;;;6.61;74.39;103232.06;5099279;27;45424;-68
2022/01/23 12:43:12;;;;;;;;;21.50;10.75;;;;;6.60;74.46;103231.19;5100495;27;45557;-68
2022/01/23 12:45:58;;;;;;;;;15.50;12.50;;;;;6.57;74.12;103230.25;5091768;27;45387;-68
2022/01/23 12:48:26;;;;;;;;;23.25;19.75;;;;;6.58;74.46;103226.78;5095163;27;45306;-68
2022/01/23 12:50:58;;;;;;;;;15.25;13.00;;;;;6.62;74.38;103225.97;5097211;27;45484;-68
2022/01/23 12:53:43;;;;;;;;;8.00;8.00;;;;;6.63;74.25;103207.72;5064612;27;47226;-68
2022/01/23 12:56:20;;;;;;;;;17.00;15.75;;;;;6.69;74.66;103212.13;5108265;27;46162;-68
2022/01/23 12:58:54;;;;;;;;;21.25;16.75;;;;;6.71;74.33;103216.50;5111231;27;45471;-68
2022/01/23 13:01:26;;;;;;;;;29.00;20.50;;;;;6.73;74.33;103214.81;5106834;27;45472;-68
2022/01/23 13:03:52;;;;;;;;;17.75;10.00;;;;;6.76;74.25;103203.50;5099544;27;47267;-69
2022/01/23 13:06:31;;;;;;;;;14.25;11.00;;;;;6.77;74.27;103197.41;5100808;27;46069;-68
2022/01/23 13:09:29;;;;;;;;;21.75;17.00;;;;;6.80;74.09;103195.72;5095321;27;45472;-68
2022/01/23 13:31:51;;;;;;;;;18.00;14.75;;;;;7.08;73.89;103180.34;5097409;27;45497;-69
2022/01/23 13:34:35;;;;;;;;;15.00;15.00;;;;;7.07;74.14;103173.38;5095790;27;45336;-69
2022/01/23 13:37:02;;;;;;;;;18.25;14.00;;;;;7.06;73.63;103182.09;5095747;27;45529;-68
2022/01/23 13:39:41;;;;;;;;;15.00;12.00;;;;;7.00;73.50;103176.78;5100502;27;45469;-68
2022/01/23 13:42:20;;;;;;;;;25.25;19.75;;;;;6.95;73.51;103163.66;5091189;27;45536;-68
2022/01/23 13:53:26;;;;;;;;;13.75;11.25;;;;;6.96;73.65;103141.00;5092786;27;45527;-69
2022/01/23 13:58:38;;;;;;;;;24.50;17.75;;;;;7.01;73.71;103139.31;5096690;27;45363;-69
2022/01/23 14:01:52;;;;;;;;;24.25;23.00;;;;;7.03;73.79;103130.63;5094471;27;45905;-69
2022/01/23 14:03:56;;;;;;;;;22.25;19.75;;;;;7.10;73.54;103131.56;5085473;27;48109;-69
2022/01/23 14:06:22;;;;;;;;;21.75;17.75;;;;;7.19;73.51;103120.31;5076726;27;47393;-69
2022/01/23 14:09:21;;;;;;;;;18.00;14.25;;;;;7.25;73.61;103123.84;5098855;27;46528;-69
2022/01/23 14:11:48;;;;;;;;;17.75;6.00;;;;;7.28;73.05;103113.44;5058366;28;45882;-69
2022/01/23 14:14:20;;;;;;;;;26.00;18.00;;;;;7.34;73.13;103117.84;5053896;28;45325;-69
2022/01/23 14:16:48;;;;;;;;;31.50;18.25;;;;;7.44;72.82;103117.03;5056163;28;45620;-69
2022/01/23 14:19:21;;;;;;;;;27.00;19.75;;;;;7.49;72.45;103115.34;5064734;27;45543;-69
2022/01/23 14:21:49;;;;;;;;;19.25;15.50;;;;;7.53;72.38;103106.66;5063755;28;45916;-69
2022/01/23 14:24:29;;;;;;;;;23.25;20.75;;;;;7.56;72.44;103106.66;5067768;27;45454;-69
2022/01/23 14:27:07;;;;;;;;;21.50;14.25;;;;;7.61;72.12;103122.41;5057711;28;45524;-68
2022/01/23 14:29:45;;;;;;;;;18.50;15.00;;;;;7.63;72.07;103104.13;5061211;28;46489;-69
2022/01/23 14:32:19;;;;;;;;;29.25;19.50;;;;;7.53;71.80;103079.63;5070124;28;45837;-69
2022/01/23 14:34:45;;;;;;;;;26.25;20.00;;;;;7.67;71.97;103098.88;5064969;28;45609;-68
2022/01/23 14:37:10;;;;;;;;;23.00;19.25;;;;;7.68;71.81;103097.19;5067284;28;45553;-68
2022/01/23 14:39:36;;;;;;;;;23.00;18.00;;;;;7.71;71.67;103094.56;5064365;28;46350;-68
2022/01/23 14:42:18;;;;;;;;;26.50;19.50;;;;;7.71;71.51;103098.06;5062141;28;45335;-68
2022/01/23 14:44:44;;;;;;;;;32.75;23.25;;;;;7.74;71.88;103099.84;5053064;28;45598;-69
2022/01/23 14:47:11;;;;;;;;;22.50;19.25;;;;;7.74;71.65;103097.22;5064333;27;45575;-68
2022/01/23 14:49:38;;;;;;;;;25.25;18.75;;;;;7.71;71.58;103097.19;5096633;27;46936;-69